NCAR-RAP Real-Time Weather Data

Output produced by METARs form (23 July 2019  22:16 UTC)
found at http://weather.rap.ucar.edu/surface/
 
KALO 232154Z 33010G17KT 10SM FEW055 28/14 A3017 RMK AO2 SLP212 T02780144